Nearby METAR Reports

 

EGQL - Leuchars Raf, United Kingdom
Distance from station: SW 11mi, 17km
Updated: 25/06/2018 15:50
Clear
Clear
 Wind from ESE
Wind: ESE 16 mph , 26 km/h
Temperature: 18°C
Dew Point: 9°C
Humidity: 56%
Barometer: 1026 hPa
Summary: Clear
Visibility: greater than 7 miles , 10 km
2018/06/25 14:50 EGQL 251450Z 11014KT CAVOK 18/09 Q1026 BLU
EGPN - Dundee/Riverside, United Kingdom
Distance from station: WSW 13mi, 20km
Updated: 25/06/2018 15:50
Clear
Clear
 Wind from ENE
Wind: ENE 13 mph , 20 km/h
Temperature: 21°C
Dew Point: 7°C
Humidity: 40%
Barometer: 1026 hPa
Summary: Clear
Visibility: greater than 7 miles , 10 km
2018/06/25 14:50 EGPN 251450Z 07011KT CAVOK 21/07 Q1026
 
EGPH - Edinburgh Airpor, United Kingdom
Distance from station: SSW 46mi, 74km
Updated: 25/06/2018 15:50
Clear
Clear
 Wind from WNW
Wind: WNW 6 mph , 9 km/h
Temperature: 25°C
Dew Point: 4°C
Humidity: 26%
Barometer: 1026 hPa
Summary: Clear
Visibility: greater than 7 miles , 10 km
2018/06/25 14:50 EGPH 251450Z 30005KT 260V340 CAVOK 25/04 Q1026
EGPD - Aberdeen/Dyce, United Kingdom
Distance from station: NNE 51mi, 82km
Updated: 25/06/2018 15:50
Clear
Clear
 Wind from E
Wind: E 12 mph , 19 km/h
Temperature: 16°C
Dew Point: 8°C
Humidity: 59%
Barometer: 1027 hPa
Clouds: Clear
Visibility: 6 miles , 10 km
2018/06/25 14:50 EGPD 251450Z AUTO 09010KT 9999 NCD 16/08 Q1027 NOSIG